Time;durP1;ratioP1;P1;durP2;ratioP2;P2;SDS_P1;SDS_P2;PMS_P1;PMS_P2;Temp;Humidity;BMP_temperature;BMP_pressure;BME280_temperature;BME280_humidity;BME280_pressure;Samples;Min_cycle;Max_cycle;Signal;HPM_P1;HPM_P2
2022/01/11 00:00:31;;;;;;;25.33;13.52;;;;;;;;;;4955633;29;20038;-92
2022/01/11 00:02:58;;;;;;;25.88;14.05;;;;;;;;;;4941364;29;20024;-92
2022/01/11 00:05:30;;;;;;;24.10;13.80;;;;;;;;;;4939945;29;20031;-91
2022/01/11 00:07:56;;;;;;;25.60;14.02;;;;;;;;;;4924158;29;20477;-91
2022/01/11 00:13:26;;;;;;;23.75;12.82;;;;;;;;;;4940802;29;20051;-91
2022/01/11 00:15:52;;;;;;;23.52;13.82;;;;;;;;;;4939710;29;20139;-92
2022/01/11 00:18:18;;;;;;;26.10;13.43;;;;;;;;;;4939557;29;20039;-91
2022/01/11 00:20:45;;;;;;;20.73;12.15;;;;;;;;;;4940738;29;20023;-92
2022/01/11 00:25:38;;;;;;;23.30;12.35;;;;;;;;;;4940609;29;20032;-91
2022/01/11 00:28:05;;;;;;;24.15;13.27;;;;;;;;;;4940573;29;20046;-90
2022/01/11 00:30:34;;;;;;;25.42;13.60;;;;;;;;;;4939265;29;20028;-91
2022/01/11 00:33:04;;;;;;;24.25;12.70;;;;;;;;;;4939528;29;20031;-92
2022/01/11 00:35:43;;;;;;;22.15;12.02;;;;;;;;;;4940398;29;20028;-91
2022/01/11 00:38:10;;;;;;;22.23;12.57;;;;;;;;;;4939650;29;20370;-91
2022/01/11 00:40:37;;;;;;;24.95;13.35;;;;;;;;;;4940665;29;20024;-90
2022/01/11 00:43:05;;;;;;;22.95;12.65;;;;;;;;;;4940387;29;20403;-91
2022/01/11 00:45:31;;;;;;;22.67;13.00;;;;;;;;;;4940418;29;20419;-90
2022/01/11 00:47:57;;;;;;;23.40;13.30;;;;;;;;;;4940645;29;20035;-92
2022/01/11 00:50:24;;;;;;;19.77;11.68;;;;;;;;;;4940697;29;20319;-91
2022/01/11 00:52:51;;;;;;;22.55;11.77;;;;;;;;;;4940396;29;20019;-92
2022/01/11 00:55:17;;;;;;;21.90;12.20;;;;;;;;;;4940609;29;20308;-92
2022/01/11 00:57:43;;;;;;;19.38;11.05;;;;;;;;;;4939276;29;20032;-91
2022/01/11 01:00:11;;;;;;;22.52;12.57;;;;;;;;;;4940223;29;20079;-91
2022/01/11 01:02:41;;;;;;;22.73;12.38;;;;;;;;;;4940167;29;20088;-90
2022/01/11 01:05:08;;;;;;;20.33;11.88;;;;;;;;;;4940431;29;20110;-91
2022/01/11 01:07:34;;;;;;;21.77;11.55;;;;;;;;;;4939523;29;20030;-90
2022/01/11 01:10:14;;;;;;;21.02;11.40;;;;;;;;;;4940331;29;20027;-90
2022/01/11 01:12:40;;;;;;;20.08;11.15;;;;;;;;;;4940281;29;20024;-90
2022/01/11 01:15:06;;;;;;;19.23;10.85;;;;;;;;;;4939959;29;20177;-90
2022/01/11 01:17:32;;;;;;;20.08;10.88;;;;;;;;;;4940001;29;20415;-90
2022/01/11 01:19:59;;;;;;;19.05;10.52;;;;;;;;;;4938994;29;20510;-92
2022/01/11 01:22:25;;;;;;;19.00;10.90;;;;;;;;;;4938856;29;20446;-91
2022/01/11 01:24:51;;;;;;;20.55;11.25;;;;;;;;;;4939917;29;20031;-90
2022/01/11 01:27:36;;;;;;;19.60;11.32;;;;;;;;;;4940049;29;20035;-90
2022/01/11 01:30:04;;;;;;;21.05;11.20;;;;;;;;;;4940403;29;20411;-91
2022/01/11 01:32:31;;;;;;;19.60;11.23;;;;;;;;;;4942835;29;20028;-91
2022/01/11 01:35:01;;;;;;;17.92;10.50;;;;;;;;;;4943582;29;20107;-90
2022/01/11 01:37:28;;;;;;;20.30;10.85;;;;;;;;;;4943944;29;20030;-91
2022/01/11 01:39:54;;;;;;;17.38;9.68;;;;;;;;;;4942654;29;20027;-90
2022/01/11 01:42:26;;;;;;;19.00;10.00;;;;;;;;;;4943682;29;20102;-90
2022/01/11 01:44:52;;;;;;;17.15;10.48;;;;;;;;;;4943275;29;20032;-90
2022/01/11 01:47:19;;;;;;;19.73;11.55;;;;;;;;;;4943612;29;20031;-90
2022/01/11 01:49:45;;;;;;;17.75;9.88;;;;;;;;;;4942598;29;20297;-91
2022/01/11 01:52:12;;;;;;;19.63;10.80;;;;;;;;;;4943785;29;20107;-91
2022/01/11 01:54:38;;;;;;;18.95;11.18;;;;;;;;;;4943028;29;20075;-92
2022/01/11 02:03:15;;;;;;;17.15;10.60;;;;;;;;;;4943536;29;20039;-91
2022/01/11 02:08:27;;;;;;;20.60;10.65;;;;;;;;;;4943047;29;20099;-91
2022/01/11 02:13:52;;;;;;;20.17;11.75;;;;;;;;;;4943240;29;20419;-90
2022/01/11 02:19:04;;;;;;;19.75;11.05;;;;;;;;;;4943389;29;20438;-90
2022/01/11 02:21:30;;;;;;;20.17;10.80;;;;;;;;;;4941979;29;20031;-91
2022/01/11 02:23:57;;;;;;;21.58;11.73;;;;;;;;;;4941619;29;20032;-90
2022/01/11 02:26:25;;;;;;;19.90;11.45;;;;;;;;;;4942338;29;20083;-91
2022/01/11 02:49:01;;;;;;;18.60;11.40;;;;;;;;;;5038764;23;20121;-92
2022/01/11 02:51:27;;;;;;;19.10;11.07;;;;;;;;;;4981933;28;20102;-93
2022/01/11 02:53:54;;;;;;;23.80;12.52;;;;;;;;;;4980724;28;20583;-92
2022/01/11 03:01:52;;;;;;;20.02;11.57;;;;;;;;;;4981063;28;20041;-90
2022/01/11 03:04:18;;;;;;;20.73;11.15;;;;;;;;;;4980762;28;20038;-90
2022/01/11 03:06:45;;;;;;;20.17;11.35;;;;;;;;;;4980551;28;20033;-90
2022/01/11 03:09:11;;;;;;;20.70;11.35;;;;;;;;;;4980756;28;20402;-90
2022/01/11 03:14:22;;;;;;;19.52;11.73;;;;;;;;;;4980854;28;20045;-90
2022/01/11 03:16:49;;;;;;;22.67;12.40;;;;;;;;;;4960079;29;20063;-90
2022/01/11 03:19:17;;;;;;;21.92;12.23;;;;;;;;;;4961267;29;20046;-90
2022/01/11 03:21:46;;;;;;;21.63;11.70;;;;;;;;;;4961285;29;20031;-90
2022/01/11 03:24:12;;;;;;;18.48;11.48;;;;;;;;;;4944018;29;20035;-90
2022/01/11 03:26:38;;;;;;;21.10;11.02;;;;;;;;;;4960815;29;20051;-90
2022/01/11 03:29:04;;;;;;;19.65;11.57;;;;;;;;;;4960686;29;20028;-91
2022/01/11 03:31:30;;;;;;;18.25;11.23;;;;;;;;;;4943860;29;20029;-91
2022/01/11 03:33:56;;;;;;;21.27;12.43;;;;;;;;;;4943739;29;20122;-91
2022/01/11 03:36:23;;;;;;;20.38;11.32;;;;;;;;;;4960799;29;20028;-90
2022/01/11 03:38:49;;;;;;;20.00;10.57;;;;;;;;;;4943825;29;20076;-91
2022/01/11 03:41:15;;;;;;;22.55;12.02;;;;;;;;;;4960595;29;20027;-91
2022/01/11 03:43:41;;;;;;;21.88;11.60;;;;;;;;;;4960501;29;20031;-91
2022/01/11 04:00:39;;;;;;;17.52;10.45;;;;;;;;;;4960065;29;20078;-90
2022/01/11 04:03:06;;;;;;;19.42;11.50;;;;;;;;;;4959896;29;20031;-89
2022/01/11 04:05:34;;;;;;;20.80;11.25;;;;;;;;;;4960378;29;20334;-90
2022/01/11 04:08:01;;;;;;;21.17;10.93;;;;;;;;;;4960312;29;20023;-90
2022/01/11 04:13:12;;;;;;;20.85;11.95;;;;;;;;;;4960463;29;20042;-91
2022/01/11 04:21:12;;;;;;;17.65;10.55;;;;;;;;;;5011751;23;20331;-89
2022/01/11 04:23:39;;;;;;;23.90;11.93;;;;;;;;;;4959862;28;20030;-90
2022/01/11 04:26:05;;;;;;;20.17;10.80;;;;;;;;;;4959754;28;20027;-91
2022/01/11 04:28:32;;;;;;;20.48;11.52;;;;;;;;;;4958876;29;20023;-91
2022/01/11 04:30:59;;;;;;;20.27;11.25;;;;;;;;;;4959970;28;20106;-91
2022/01/11 04:33:26;;;;;;;20.65;11.02;;;;;;;;;;4958739;28;20019;-91
2022/01/11 04:41:23;;;;;;;37.17;14.80;;;;;;;;;;5032544;23;20058;-91
2022/01/11 04:43:49;;;;;;;80.35;25.80;;;;;;;;;;4961837;28;20035;-91
2022/01/11 04:49:07;;;;;;;28.20;14.20;;;;;;;;;;5019271;23;20062;-90
2022/01/11 05:54:16;;;;;;;15.32;8.45;;;;;;;;;;5019507;23;20357;-89
2022/01/11 05:56:44;;;;;;;15.82;9.23;;;;;;;;;;4979044;28;20414;-91
2022/01/11 05:59:13;;;;;;;16.00;9.60;;;;;;;;;;4982086;28;20027;-88
2022/01/11 06:01:39;;;;;;;19.05;9.43;;;;;;;;;;4981555;28;20459;-90
2022/01/11 06:42:39;;;;;;;15.00;8.82;;;;;;;;;;5038931;23;20058;-91
2022/01/11 08:08:58;;;;;;;24.33;13.35;;;;;;;;;;4980161;28;20041;-92
2022/01/11 11:27:34;;;;;;;34.88;15.73;;;;;;;;;;4982017;28;20041;-86
2022/01/11 11:30:03;;;;;;;22.60;12.43;;;;;;;;;;4979156;28;20382;-88
2022/01/11 11:32:29;;;;;;;37.08;19.48;;;;;;;;;;4980111;28;20046;-87
2022/01/11 11:34:55;;;;;;;60.15;32.30;;;;;;;;;;4963075;28;20077;-88
2022/01/11 11:43:02;;;;;;;28.92;15.38;;;;;;;;;;5009680;23;20051;-87
2022/01/11 11:45:32;;;;;;;23.13;12.98;;;;;;;;;;4948007;29;20071;-87
2022/01/11 11:51:06;;;;;;;19.45;10.43;;;;;;;;;;4941845;29;20047;-88
2022/01/11 11:53:38;;;;;;;27.95;12.52;;;;;;;;;;4924810;29;20047;-87
2022/01/11 11:59:09;;;;;;;26.05;11.98;;;;;;;;;;4941320;29;20079;-88
2022/01/11 12:01:42;;;;;;;56.28;20.02;;;;;;;;;;4941024;29;20031;-88
2022/01/11 12:04:10;;;;;;;47.03;17.90;;;;;;;;;;4940600;29;20031;-92
2022/01/11 12:06:36;;;;;;;37.83;15.68;;;;;;;;;;4958803;29;20098;-87
2022/01/11 12:09:05;;;;;;;22.45;10.95;;;;;;;;;;4959687;29;20034;-88
2022/01/11 12:14:37;;;;;;;37.30;13.43;;;;;;;;;;4943549;29;20047;-87
2022/01/11 12:20:07;;;;;;;47.00;17.42;;;;;;;;;;4939703;29;20119;-88
2022/01/11 12:22:40;;;;;;;105.13;31.95;;;;;;;;;;4919824;29;20036;-88
2022/01/11 12:25:06;;;;;;;35.65;14.57;;;;;;;;;;4933563;29;20126;-87
2022/01/11 12:27:52;;;;;;;46.72;18.00;;;;;;;;;;4923103;29;20032;-87
2022/01/11 12:30:20;;;;;;;120.78;42.95;;;;;;;;;;4921663;29;20116;-87
2022/01/11 13:07:59;;;;;;;71.72;29.25;;;;;;;;;;4993120;23;20047;-87
2022/01/11 13:10:29;;;;;;;50.67;20.83;;;;;;;;;;4969811;28;20019;-87
2022/01/11 13:13:11;;;;;;;24.65;13.10;;;;;;;;;;4974647;28;20065;-87
2022/01/11 13:18:41;;;;;;;25.45;12.55;;;;;;;;;;5042707;23;20055;-88
2022/01/11 19:50:29;;;;;;;15.55;9.50;;;;;;;;;;4958630;29;20050;-90
2022/01/11 19:52:55;;;;;;;16.70;8.93;;;;;;;;;;4960242;29;20031;-90
2022/01/11 19:55:22;;;;;;;19.50;9.13;;;;;;;;;;4960326;29;20062;-89
2022/01/11 19:57:49;;;;;;;19.83;9.98;;;;;;;;;;4943583;29;20034;-90
2022/01/11 20:00:16;;;;;;;14.23;8.82;;;;;;;;;;4960355;29;20330;-90
2022/01/11 20:02:44;;;;;;;18.50;9.45;;;;;;;;;;4943228;29;20058;-91
2022/01/11 20:05:11;;;;;;;15.68;9.57;;;;;;;;;;4960231;29;20062;-90
2022/01/11 20:07:39;;;;;;;18.20;9.07;;;;;;;;;;4943293;29;20027;-87
2022/01/11 20:10:06;;;;;;;20.50;10.73;;;;;;;;;;4960302;29;20313;-91
2022/01/11 20:12:32;;;;;;;18.83;9.82;;;;;;;;;;4943359;29;20019;-91
2022/01/11 20:14:58;;;;;;;15.48;9.95;;;;;;;;;;4943265;29;20031;-91
2022/01/11 20:17:25;;;;;;;15.25;8.52;;;;;;;;;;4959920;29;20056;-90
2022/01/11 20:19:51;;;;;;;16.73;8.52;;;;;;;;;;4943121;29;20126;-91
2022/01/11 20:27:30;;;;;;;17.38;9.45;;;;;;;;;;4960342;29;20042;-94
2022/01/11 20:29:58;;;;;;;17.15;9.02;;;;;;;;;;4959823;29;20019;-94
2022/01/11 20:32:24;;;;;;;17.33;9.77;;;;;;;;;;4960018;29;20403;-92
2022/01/11 20:34:51;;;;;;;17.13;9.45;;;;;;;;;;4959430;28;20031;-93
2022/01/11 20:37:17;;;;;;;17.60;10.20;;;;;;;;;;4960170;29;20058;-93
2022/01/11 20:39:49;;;;;;;16.98;8.85;;;;;;;;;;4959564;29;20028;-94
2022/01/11 20:42:16;;;;;;;14.82;8.73;;;;;;;;;;4959800;29;20031;-93
2022/01/11 20:44:45;;;;;;;18.83;9.60;;;;;;;;;;4937347;29;20134;-91
2022/01/11 20:47:14;;;;;;;15.18;9.30;;;;;;;;;;4954237;29;20023;-91
2022/01/11 20:49:40;;;;;;;15.27;9.35;;;;;;;;;;4942127;29;20087;-90
2022/01/11 20:54:40;;;;;;;16.77;9.18;;;;;;;;;;4959664;29;20042;-89
2022/01/11 20:57:06;;;;;;;22.20;12.13;;;;;;;;;;4959539;29;20338;-90
2022/01/11 20:59:33;;;;;;;25.08;14.45;;;;;;;;;;4942239;29;20108;-88
2022/01/11 21:01:59;;;;;;;20.85;11.05;;;;;;;;;;4959513;29;20330;-87
2022/01/11 21:04:26;;;;;;;18.48;10.13;;;;;;;;;;4959118;29;20055;-88
2022/01/11 21:06:52;;;;;;;17.88;10.75;;;;;;;;;;4959345;29;20023;-88
2022/01/11 21:09:18;;;;;;;19.10;10.63;;;;;;;;;;4959358;29;20015;-90
2022/01/11 21:11:45;;;;;;;18.10;10.25;;;;;;;;;;4959211;29;20031;-90
2022/01/11 21:20:06;;;;;;;19.45;9.48;;;;;;;;;;4959532;29;20046;-89
2022/01/11 21:22:36;;;;;;;15.85;8.65;;;;;;;;;;4959418;29;20024;-88
2022/01/11 21:25:02;;;;;;;15.80;8.57;;;;;;;;;;4958894;29;20126;-89
2022/01/11 21:27:28;;;;;;;22.35;10.30;;;;;;;;;;4958272;28;20024;-88
2022/01/11 21:29:54;;;;;;;17.40;10.00;;;;;;;;;;4943375;29;20024;-88
2022/01/11 21:32:20;;;;;;;17.92;9.43;;;;;;;;;;4958727;29;20068;-89
2022/01/11 21:34:46;;;;;;;18.73;10.38;;;;;;;;;;4958442;29;20104;-89
2022/01/11 21:37:14;;;;;;;19.75;9.10;;;;;;;;;;4958660;29;20031;-89
2022/01/11 21:39:40;;;;;;;35.83;11.85;;;;;;;;;;4940177;29;20032;-89
2022/01/11 21:42:07;;;;;;;37.17;12.73;;;;;;;;;;4957026;29;20054;-89
2022/01/11 21:44:39;;;;;;;21.00;9.73;;;;;;;;;;4941942;29;20031;-89
2022/01/11 21:47:06;;;;;;;44.25;13.93;;;;;;;;;;4959287;28;20027;-90
2022/01/11 21:55:06;;;;;;;67.85;20.63;;;;;;;;;;4954831;29;20083;-88
2022/01/11 21:57:32;;;;;;;16.40;9.43;;;;;;;;;;4959973;29;20485;-88
2022/01/11 22:02:43;;;;;;;13.32;7.35;;;;;;;;;;4949221;29;20086;-88
2022/01/11 22:05:10;;;;;;;14.68;8.02;;;;;;;;;;4953507;29;20367;-88
2022/01/11 22:07:36;;;;;;;11.60;6.45;;;;;;;;;;4955459;29;20303;-88
2022/01/11 22:10:02;;;;;;;12.65;7.47;;;;;;;;;;4929676;29;20067;-88
2022/01/11 22:12:31;;;;;;;11.50;7.15;;;;;;;;;;4965185;28;20033;-88
2022/01/11 22:15:15;;;;;;;9.95;5.88;;;;;;;;;;4964126;28;20325;-88
2022/01/11 22:26:22;;;;;;;11.27;6.63;;;;;;;;;;4995642;23;20406;-89
2022/01/11 22:34:22;;;;;;;10.63;6.57;;;;;;;;;;4998502;23;20322;-87
2022/01/11 22:36:49;;;;;;;9.32;6.25;;;;;;;;;;4981632;28;20042;-86
2022/01/11 22:39:15;;;;;;;9.20;5.78;;;;;;;;;;4981332;28;20030;-86
2022/01/11 22:41:41;;;;;;;10.07;6.30;;;;;;;;;;4980773;28;20037;-87
2022/01/11 22:44:07;;;;;;;10.38;6.72;;;;;;;;;;4980985;28;20019;-87
2022/01/11 22:49:19;;;;;;;8.73;5.57;;;;;;;;;;4981802;28;20463;-87
